Time;durP1;ratioP1;P1;durP2;ratioP2;P2;SDS_P1;SDS_P2;PMS_P1;PMS_P2;Temp;Humidity;BMP_temperature;BMP_pressure;BME280_temperature;BME280_humidity;BME280_pressure;Samples;Min_cycle;Max_cycle;Signal;HPM_P1;HPM_P2
2022/09/27 00:02:08;;;;;;;1.53;1.20;;;;;;;;;;4978290;28;20442;-56
2022/09/27 00:04:34;;;;;;;5.37;1.00;;;;;;;;;;4939741;28;20496;-55
2022/09/27 00:07:01;;;;;;;1.87;1.07;;;;;;;;;;4978345;28;20445;-55
2022/09/27 00:09:26;;;;;;;1.50;1.03;;;;;;;;;;4970973;28;21155;-55
2022/09/27 00:11:52;;;;;;;2.60;1.13;;;;;;;;;;4981362;28;20502;-55
2022/09/27 00:14:18;;;;;;;4.10;1.47;;;;;;;;;;4970271;28;20209;-55
2022/09/27 00:16:44;;;;;;;3.97;1.10;;;;;;;;;;4984701;28;20474;-54
2022/09/27 00:19:21;;;;;;;1.40;0.80;;;;;;;;;;4944319;28;20460;-55
2022/09/27 00:21:47;;;;;;;1.30;0.80;;;;;;;;;;4973408;28;20567;-55
2022/09/27 00:24:14;;;;;;;1.53;0.80;;;;;;;;;;4966263;28;20426;-55
2022/09/27 00:26:40;;;;;;;2.20;0.70;;;;;;;;;;4969405;28;20446;-56
2022/09/27 00:29:06;;;;;;;1.60;0.80;;;;;;;;;;4972653;28;20515;-55
2022/09/27 00:31:32;;;;;;;1.10;0.70;;;;;;;;;;4972054;28;20981;-55
2022/09/27 00:33:58;;;;;;;1.30;0.80;;;;;;;;;;4969063;28;20441;-55
2022/09/27 00:36:24;;;;;;;2.37;0.90;;;;;;;;;;4972842;28;20578;-55
2022/09/27 00:38:52;;;;;;;1.20;0.73;;;;;;;;;;4938087;28;20485;-55
2022/09/27 00:41:19;;;;;;;1.13;0.77;;;;;;;;;;4972878;28;20519;-54
2022/09/27 00:43:45;;;;;;;1.50;0.80;;;;;;;;;;4968573;28;20452;-55
2022/09/27 00:46:11;;;;;;;1.30;1.07;;;;;;;;;;4976674;28;20508;-54
2022/09/27 00:48:37;;;;;;;2.87;0.70;;;;;;;;;;4955769;28;20457;-55
2022/09/27 00:51:04;;;;;;;1.40;1.00;;;;;;;;;;4975757;28;20441;-53
2022/09/27 00:53:33;;;;;;;1.10;0.77;;;;;;;;;;4943939;28;20459;-54
2022/09/27 00:56:04;;;;;;;2.30;0.90;;;;;;;;;;4977210;28;20488;-55
2022/09/27 00:58:30;;;;;;;1.53;0.80;;;;;;;;;;4953820;28;20453;-55
2022/09/27 01:00:58;;;;;;;1.50;0.70;;;;;;;;;;4971762;28;20448;-55
2022/09/27 01:03:44;;;;;;;1.47;1.03;;;;;;;;;;4967350;28;20433;-55
2022/09/27 01:06:11;;;;;;;3.63;1.17;;;;;;;;;;4976192;28;20424;-55
2022/09/27 01:08:37;;;;;;;1.40;0.90;;;;;;;;;;4975296;28;20492;-55
2022/09/27 01:11:09;;;;;;;1.33;0.90;;;;;;;;;;4986613;28;20416;-56
2022/09/27 01:13:37;;;;;;;1.30;0.90;;;;;;;;;;4939003;28;20524;-54
2022/09/27 01:16:08;;;;;;;1.27;0.80;;;;;;;;;;4975170;28;20477;-55
2022/09/27 01:18:54;;;;;;;1.67;0.90;;;;;;;;;;4960635;28;20815;-55
2022/09/27 01:21:20;;;;;;;1.97;1.00;;;;;;;;;;4974565;28;20429;-56
2022/09/27 01:24:05;;;;;;;1.53;0.77;;;;;;;;;;4966266;28;20452;-55
2022/09/27 01:26:31;;;;;;;2.20;0.70;;;;;;;;;;4974116;28;20449;-55
2022/09/27 01:28:59;;;;;;;1.67;0.70;;;;;;;;;;4945448;28;20519;-55
2022/09/27 01:31:28;;;;;;;1.57;0.80;;;;;;;;;;4976241;28;20540;-55
2022/09/27 01:33:54;;;;;;;1.83;0.77;;;;;;;;;;4953105;28;20479;-54
2022/09/27 01:36:28;;;;;;;1.13;0.63;;;;;;;;;;4974931;28;20499;-55
2022/09/27 01:39:08;;;;;;;1.33;0.90;;;;;;;;;;4964897;28;20551;-54
2022/09/27 01:41:43;;;;;;;1.30;0.90;;;;;;;;;;4976012;28;20515;-54
2022/09/27 01:44:15;;;;;;;1.10;0.70;;;;;;;;;;4967503;28;20506;-53
2022/09/27 01:46:41;;;;;;;1.13;0.70;;;;;;;;;;4976453;28;20464;-55
2022/09/27 01:49:17;;;;;;;2.33;1.00;;;;;;;;;;4931402;28;20441;-55
2022/09/27 01:51:45;;;;;;;2.13;0.80;;;;;;;;;;4971073;28;20489;-55
2022/09/27 01:54:12;;;;;;;1.27;0.90;;;;;;;;;;4966666;28;20942;-53
2022/09/27 01:56:43;;;;;;;1.27;0.80;;;;;;;;;;4973242;28;20986;-55
2022/09/27 01:59:10;;;;;;;1.73;0.90;;;;;;;;;;4947854;28;20441;-55
2022/09/27 02:01:36;;;;;;;1.67;0.80;;;;;;;;;;4969250;28;21053;-55
2022/09/27 02:04:02;;;;;;;2.03;0.80;;;;;;;;;;4972218;28;20461;-55
2022/09/27 02:06:38;;;;;;;1.30;0.73;;;;;;;;;;4977164;28;20483;-55
2022/09/27 02:09:13;;;;;;;1.30;0.70;;;;;;;;;;4979107;28;20527;-55
2022/09/27 02:11:40;;;;;;;1.43;0.83;;;;;;;;;;4979149;28;20496;-55
2022/09/27 02:14:12;;;;;;;1.20;0.90;;;;;;;;;;4979977;28;20801;-55
2022/09/27 02:16:42;;;;;;;1.50;0.70;;;;;;;;;;4979693;28;20509;-55
2022/09/27 02:19:10;;;;;;;2.00;0.80;;;;;;;;;;4940379;28;20445;-53
2022/09/27 02:21:38;;;;;;;1.10;0.60;;;;;;;;;;4972233;28;20433;-56
2022/09/27 02:24:04;;;;;;;5.57;1.00;;;;;;;;;;4978463;28;20965;-55
2022/09/27 02:26:35;;;;;;;1.60;0.90;;;;;;;;;;4981519;28;20453;-55
2022/09/27 02:29:07;;;;;;;2.70;0.70;;;;;;;;;;4949168;28;20433;-56
2022/09/27 02:31:33;;;;;;;1.20;0.80;;;;;;;;;;4978477;28;20476;-55
2022/09/27 02:34:00;;;;;;;1.30;0.70;;;;;;;;;;4980849;28;20538;-55
2022/09/27 02:36:26;;;;;;;2.17;0.90;;;;;;;;;;4973402;28;20473;-55
2022/09/27 02:38:52;;;;;;;1.40;0.90;;;;;;;;;;4981855;28;20937;-55
2022/09/27 02:41:19;;;;;;;1.83;0.77;;;;;;;;;;4979093;28;20900;-55
2022/09/27 02:43:46;;;;;;;1.00;0.60;;;;;;;;;;4977194;28;20422;-55
2022/09/27 02:46:21;;;;;;;4.03;0.90;;;;;;;;;;4960645;28;20512;-54
2022/09/27 02:48:54;;;;;;;1.87;1.07;;;;;;;;;;4977262;28;21177;-55
2022/09/27 02:51:21;;;;;;;2.60;0.90;;;;;;;;;;4948293;28;20529;-55
2022/09/27 02:54:04;;;;;;;1.10;0.73;;;;;;;;;;4971375;28;20839;-56
2022/09/27 02:56:48;;;;;;;3.97;1.07;;;;;;;;;;4973539;28;20485;-54
2022/09/27 02:59:24;;;;;;;1.10;0.60;;;;;;;;;;4975089;28;20504;-55
2022/09/27 03:01:53;;;;;;;1.63;0.80;;;;;;;;;;4946308;28;20460;-54
2022/09/27 03:04:27;;;;;;;1.03;0.60;;;;;;;;;;4978829;28;21017;-54
2022/09/27 03:06:53;;;;;;;1.60;0.80;;;;;;;;;;4978320;28;20424;-54
2022/09/27 03:09:20;;;;;;;1.30;0.60;;;;;;;;;;4983225;28;20829;-54
2022/09/27 03:11:46;;;;;;;3.33;0.80;;;;;;;;;;4959381;28;20454;-53
2022/09/27 03:14:11;;;;;;;1.20;0.80;;;;;;;;;;4981721;28;20614;-52
2022/09/27 03:16:37;;;;;;;1.10;0.70;;;;;;;;;;4969623;28;20465;-54
2022/09/27 03:19:03;;;;;;;1.20;0.73;;;;;;;;;;4983077;28;20468;-53
2022/09/27 03:21:30;;;;;;;1.50;0.70;;;;;;;;;;4961170;28;20511;-54
2022/09/27 03:23:55;;;;;;;1.60;1.00;;;;;;;;;;4983279;28;21097;-54
2022/09/27 03:26:21;;;;;;;1.10;0.63;;;;;;;;;;4949413;28;21706;-55
2022/09/27 03:28:48;;;;;;;4.70;0.87;;;;;;;;;;4977124;28;20449;-55
2022/09/27 03:31:13;;;;;;;4.50;1.10;;;;;;;;;;4957079;28;20481;-53
2022/09/27 03:33:39;;;;;;;1.20;0.67;;;;;;;;;;4967055;28;20604;-54
2022/09/27 03:36:06;;;;;;;1.50;0.80;;;;;;;;;;4978229;28;20475;-54
2022/09/27 03:38:32;;;;;;;1.20;0.87;;;;;;;;;;4982111;28;20847;-54
2022/09/27 03:40:58;;;;;;;1.93;0.90;;;;;;;;;;4968414;28;20459;-54
2022/09/27 03:43:24;;;;;;;2.00;0.73;;;;;;;;;;4966203;28;20478;-55
2022/09/27 03:45:50;;;;;;;4.50;1.13;;;;;;;;;;4971087;28;20541;-53
2022/09/27 03:48:16;;;;;;;2.60;1.47;;;;;;;;;;4972155;28;20438;-55
2022/09/27 03:50:42;;;;;;;2.20;1.20;;;;;;;;;;4974965;28;20450;-54
2022/09/27 03:53:08;;;;;;;4.97;1.00;;;;;;;;;;4957531;28;20444;-54
2022/09/27 03:55:34;;;;;;;1.50;0.97;;;;;;;;;;4973734;28;20460;-55
2022/09/27 03:58:00;;;;;;;4.33;1.00;;;;;;;;;;4935679;28;20448;-54
2022/09/27 04:00:27;;;;;;;2.07;1.00;;;;;;;;;;4973980;28;20508;-54
2022/09/27 04:02:53;;;;;;;2.20;1.13;;;;;;;;;;4977112;28;20484;-55
2022/09/27 04:05:19;;;;;;;1.70;1.20;;;;;;;;;;4949247;28;20542;-54
2022/09/27 04:07:48;;;;;;;1.73;0.93;;;;;;;;;;4978290;28;20450;-56
2022/09/27 04:10:14;;;;;;;2.50;1.00;;;;;;;;;;4956590;28;20453;-56
2022/09/27 04:12:40;;;;;;;1.90;1.30;;;;;;;;;;4981569;28;20934;-55
2022/09/27 04:15:07;;;;;;;1.50;1.10;;;;;;;;;;4977747;28;20452;-55
2022/09/27 04:17:33;;;;;;;1.93;1.17;;;;;;;;;;4980461;28;20547;-55
2022/09/27 04:19:59;;;;;;;3.10;1.70;;;;;;;;;;4948103;28;21979;-54
2022/09/27 04:22:25;;;;;;;1.80;1.20;;;;;;;;;;4975037;28;20946;-56
2022/09/27 04:24:51;;;;;;;7.40;2.30;;;;;;;;;;4965280;28;20433;-54
2022/09/27 04:27:17;;;;;;;5.40;1.80;;;;;;;;;;4971449;28;20450;-55
2022/09/27 04:29:47;;;;;;;2.47;1.73;;;;;;;;;;4950774;28;21020;-56
2022/09/27 04:32:14;;;;;;;4.07;1.50;;;;;;;;;;4963322;28;20437;-54
2022/09/27 04:37:25;;;;;;;3.57;1.63;;;;;;;;;;4974501;28;20480;-55
2022/09/27 04:39:51;;;;;;;2.70;1.30;;;;;;;;;;4949978;28;21335;-54
2022/09/27 04:42:17;;;;;;;2.77;1.73;;;;;;;;;;4966566;28;20951;-55
2022/09/27 04:44:43;;;;;;;1.87;1.27;;;;;;;;;;4975677;28;20449;-54
2022/09/27 04:47:09;;;;;;;2.17;1.50;;;;;;;;;;4974364;28;20440;-54
2022/09/27 04:49:35;;;;;;;4.60;1.70;;;;;;;;;;4959959;28;20441;-55
2022/09/27 04:52:01;;;;;;;6.93;1.80;;;;;;;;;;4936948;28;20469;-54
2022/09/27 04:54:28;;;;;;;4.33;1.60;;;;;;;;;;4976155;28;20454;-55
2022/09/27 04:56:54;;;;;;;6.40;2.10;;;;;;;;;;4974254;28;20489;-54
2022/09/27 04:59:21;;;;;;;3.90;2.53;;;;;;;;;;4973103;28;20961;-55
2022/09/27 05:01:48;;;;;;;2.40;1.50;;;;;;;;;;4914833;28;20657;-55
2022/09/27 05:04:14;;;;;;;3.57;2.17;;;;;;;;;;4970817;28;20476;-55
2022/09/27 05:06:40;;;;;;;2.47;1.70;;;;;;;;;;4971542;28;20430;-56
2022/09/27 05:09:06;;;;;;;3.80;1.30;;;;;;;;;;4968638;28;20471;-56
2022/09/27 05:11:32;;;;;;;3.00;1.23;;;;;;;;;;4953583;28;20449;-56
2022/09/27 05:13:58;;;;;;;3.60;1.43;;;;;;;;;;4959501;28;20540;-56
2022/09/27 05:16:25;;;;;;;3.00;1.20;;;;;;;;;;4958324;28;21517;-55
2022/09/27 05:18:51;;;;;;;1.73;1.37;;;;;;;;;;4956365;28;20503;-55
2022/09/27 05:21:16;;;;;;;1.70;1.17;;;;;;;;;;4971230;28;20453;-55
2022/09/27 05:23:42;;;;;;;6.10;1.53;;;;;;;;;;4960129;28;20453;-55
2022/09/27 05:26:08;;;;;;;2.67;1.70;;;;;;;;;;4964010;28;20515;-54
2022/09/27 05:28:34;;;;;;;4.20;1.33;;;;;;;;;;4956771;28;20445;-55
2022/09/27 05:31:04;;;;;;;3.27;1.70;;;;;;;;;;4970672;28;20472;-54
2022/09/27 05:33:33;;;;;;;3.30;1.17;;;;;;;;;;4939059;28;20468;-55
2022/09/27 05:35:59;;;;;;;1.80;1.30;;;;;;;;;;4976194;28;20500;-56
2022/09/27 05:38:25;;;;;;;3.03;1.30;;;;;;;;;;4967257;28;20588;-56
2022/09/27 05:40:51;;;;;;;8.30;1.83;;;;;;;;;;4972575;28;21602;-54
2022/09/27 05:43:17;;;;;;;4.10;1.30;;;;;;;;;;4954587;28;20452;-55
2022/09/27 05:45:43;;;;;;;2.80;1.37;;;;;;;;;;4974360;28;21637;-55
2022/09/27 05:48:11;;;;;;;3.50;1.80;;;;;;;;;;4952947;28;20532;-56
2022/09/27 05:50:37;;;;;;;2.40;1.60;;;;;;;;;;4975355;28;20477;-56
2022/09/27 05:53:03;;;;;;;3.70;2.37;;;;;;;;;;4952622;28;20534;-55
2022/09/27 05:55:29;;;;;;;3.27;1.43;;;;;;;;;;4969570;28;20471;-55
2022/09/27 05:57:56;;;;;;;1.60;1.00;;;;;;;;;;4968938;28;21848;-57
2022/09/27 06:00:23;;;;;;;1.67;1.10;;;;;;;;;;4974415;28;20428;-55
2022/09/27 06:02:56;;;;;;;1.97;1.20;;;;;;;;;;4952003;28;23404;-55
2022/09/27 06:05:22;;;;;;;2.30;1.63;;;;;;;;;;4976485;28;20493;-55
2022/09/27 06:07:48;;;;;;;4.17;1.30;;;;;;;;;;4932895;28;20608;-55
2022/09/27 06:10:15;;;;;;;2.10;1.57;;;;;;;;;;4960135;28;20448;-54
2022/09/27 06:12:41;;;;;;;2.10;1.30;;;;;;;;;;4933740;28;20448;-54
2022/09/27 06:15:07;;;;;;;3.07;1.30;;;;;;;;;;4942147;28;20445;-53
2022/09/27 06:17:36;;;;;;;1.87;1.60;;;;;;;;;;4957920;28;20799;-56
2022/09/27 06:20:03;;;;;;;2.47;1.50;;;;;;;;;;4948619;28;20583;-58
2022/09/27 06:22:29;;;;;;;2.53;1.90;;;;;;;;;;4970475;28;20868;-55
2022/09/27 06:24:55;;;;;;;1.67;1.20;;;;;;;;;;4967080;28;20438;-55
2022/09/27 06:27:21;;;;;;;1.40;1.10;;;;;;;;;;4969250;28;20958;-56
2022/09/27 06:29:47;;;;;;;2.37;1.13;;;;;;;;;;4973464;28;20441;-55
2022/09/27 06:32:13;;;;;;;2.23;1.10;;;;;;;;;;4969686;28;20445;-57
2022/09/27 06:34:40;;;;;;;4.73;1.00;;;;;;;;;;4982733;28;20432;-55
2022/09/27 06:37:06;;;;;;;2.90;1.10;;;;;;;;;;4981352;28;20486;-54
2022/09/27 06:39:33;;;;;;;1.17;0.80;;;;;;;;;;4975585;28;20441;-55
2022/09/27 06:41:59;;;;;;;2.90;0.80;;;;;;;;;;4952412;28;21076;-55
2022/09/27 06:44:25;;;;;;;1.30;0.67;;;;;;;;;;4975270;28;20818;-56
2022/09/27 06:46:52;;;;;;;1.57;1.00;;;;;;;;;;4983716;28;20433;-56
2022/09/27 06:49:18;;;;;;;1.43;0.97;;;;;;;;;;4989805;28;20436;-56
2022/09/27 06:51:44;;;;;;;2.33;0.90;;;;;;;;;;4973778;28;20456;-56
2022/09/27 06:54:10;;;;;;;1.77;0.93;;;;;;;;;;4988377;28;20503;-56
2022/09/27 06:56:36;;;;;;;3.97;1.10;;;;;;;;;;4955065;28;21341;-55
2022/09/27 07:01:47;;;;;;;1.97;0.80;;;;;;;;;;4965484;28;20428;-57
2022/09/27 07:04:13;;;;;;;1.30;0.77;;;;;;;;;;4992393;28;20443;-56
2022/09/27 07:06:39;;;;;;;1.10;0.73;;;;;;;;;;4974753;28;20438;-57
2022/09/27 07:09:05;;;;;;;1.33;0.93;;;;;;;;;;4988579;28;20436;-55
2022/09/27 07:11:35;;;;;;;1.80;0.73;;;;;;;;;;4942223;28;20449;-57
2022/09/27 07:14:03;;;;;;;1.77;0.77;;;;;;;;;;4980893;28;20422;-56
2022/09/27 07:16:30;;;;;;;1.23;0.73;;;;;;;;;;4978112;28;21036;-56
2022/09/27 07:18:56;;;;;;;1.20;0.60;;;;;;;;;;4984728;28;20442;-57
2022/09/27 07:21:22;;;;;;;1.53;0.80;;;;;;;;;;4976089;28;20463;-56
2022/09/27 07:23:48;;;;;;;1.00;0.60;;;;;;;;;;4984665;28;20445;-57
2022/09/27 07:26:15;;;;;;;1.30;0.87;;;;;;;;;;4978500;28;20433;-58
2022/09/27 07:28:41;;;;;;;1.20;0.70;;;;;;;;;;4979217;28;20501;-58
2022/09/27 07:31:07;;;;;;;1.20;0.87;;;;;;;;;;4951710;28;20456;-57
2022/09/27 07:33:33;;;;;;;1.23;0.70;;;;;;;;;;4981887;28;20867;-57
2022/09/27 07:35:59;;;;;;;3.00;0.80;;;;;;;;;;5002540;28;20463;-55
2022/09/27 07:38:25;;;;;;;1.53;0.70;;;;;;;;;;4982336;28;21195;-56
2022/09/27 07:40:51;;;;;;;1.67;0.60;;;;;;;;;;4946028;28;20433;-57
2022/09/27 07:43:18;;;;;;;1.00;0.63;;;;;;;;;;4982113;28;20436;-57
2022/09/27 07:45:44;;;;;;;1.37;0.83;;;;;;;;;;4973649;28;20487;-57
2022/09/27 07:48:12;;;;;;;1.10;0.60;;;;;;;;;;4983489;28;20445;-58
2022/09/27 07:50:38;;;;;;;1.53;0.90;;;;;;;;;;4974091;28;20520;-57
2022/09/27 07:53:04;;;;;;;1.10;0.60;;;;;;;;;;4985250;28;20513;-55
2022/09/27 07:55:30;;;;;;;2.13;0.80;;;;;;;;;;4978065;28;20446;-56
2022/09/27 07:58:06;;;;;;;1.40;0.83;;;;;;;;;;4985233;28;20515;-57
2022/09/27 08:00:32;;;;;;;2.10;1.13;;;;;;;;;;4955334;28;21089;-56
2022/09/27 08:02:58;;;;;;;1.10;0.60;;;;;;;;;;4987516;28;20456;-56
2022/09/27 08:05:24;;;;;;;1.87;0.70;;;;;;;;;;4980555;28;20421;-57
2022/09/27 08:07:54;;;;;;;1.30;0.80;;;;;;;;;;4981861;28;20560;-57
2022/09/27 08:10:20;;;;;;;1.10;0.90;;;;;;;;;;4966343;28;20448;-56
2022/09/27 08:12:46;;;;;;;4.80;1.13;;;;;;;;;;4978751;28;20449;-57
2022/09/27 08:15:12;;;;;;;1.60;0.90;;;;;;;;;;4940071;28;20437;-56
2022/09/27 08:17:38;;;;;;;2.80;0.80;;;;;;;;;;4981880;28;20269;-56
2022/09/27 08:20:05;;;;;;;2.70;1.00;;;;;;;;;;4972423;28;20429;-54
2022/09/27 08:22:31;;;;;;;3.10;1.00;;;;;;;;;;4980257;28;20445;-57
2022/09/27 08:24:57;;;;;;;1.60;0.70;;;;;;;;;;4955644;28;20443;-55
2022/09/27 08:27:23;;;;;;;3.73;1.17;;;;;;;;;;4979304;28;20480;-56
2022/09/27 08:29:49;;;;;;;1.23;0.90;;;;;;;;;;4976037;28;20437;-56
2022/09/27 08:32:15;;;;;;;1.83;0.80;;;;;;;;;;4948294;28;20446;-54
2022/09/27 08:34:41;;;;;;;1.40;0.73;;;;;;;;;;4979927;28;20433;-54
2022/09/27 08:37:07;;;;;;;1.27;0.70;;;;;;;;;;4954545;28;20468;-56
2022/09/27 08:39:33;;;;;;;1.50;0.73;;;;;;;;;;4981447;28;20548;-56
2022/09/27 08:42:05;;;;;;;1.20;0.80;;;;;;;;;;4958223;28;20953;-53
2022/09/27 08:44:47;;;;;;;1.23;0.73;;;;;;;;;;4981531;28;20448;-55
2022/09/27 08:47:20;;;;;;;2.17;0.90;;;;;;;;;;4935499;28;20458;-55
2022/09/27 08:49:49;;;;;;;2.20;0.80;;;;;;;;;;4978467;28;20468;-55
2022/09/27 08:52:20;;;;;;;1.17;0.90;;;;;;;;;;4958825;28;20930;-55
2022/09/27 08:54:46;;;;;;;1.20;0.70;;;;;;;;;;4979878;28;20453;-56
2022/09/27 08:57:12;;;;;;;3.90;0.93;;;;;;;;;;4972350;28;20469;-56
2022/09/27 08:59:43;;;;;;;2.23;0.90;;;;;;;;;;4981680;28;20564;-54
2022/09/27 09:02:27;;;;;;;1.40;0.90;;;;;;;;;;4958992;28;20947;-56
2022/09/27 09:04:54;;;;;;;2.13;0.80;;;;;;;;;;4979478;28;20448;-56
2022/09/27 09:07:26;;;;;;;1.33;0.70;;;;;;;;;;4971244;28;23161;-55
2022/09/27 09:10:03;;;;;;;1.20;0.77;;;;;;;;;;4977898;28;20440;-56
2022/09/27 09:12:48;;;;;;;1.10;0.73;;;;;;;;;;4973655;28;20515;-57
2022/09/27 09:15:53;;;;;;;1.70;1.00;;;;;;;;;;4973053;28;20447;-56
2022/09/27 09:18:21;;;;;;;3.17;0.80;;;;;;;;;;4974091;28;20529;-56
2022/09/27 09:20:55;;;;;;;1.17;0.63;;;;;;;;;;4935465;28;22080;-56
2022/09/27 09:23:34;;;;;;;1.30;0.90;;;;;;;;;;4973185;28;20452;-56
2022/09/27 09:26:03;;;;;;;1.40;0.60;;;;;;;;;;4972861;28;20445;-56
2022/09/27 09:28:34;;;;;;;1.20;0.80;;;;;;;;;;4974374;28;20445;-56
2022/09/27 09:31:16;;;;;;;1.20;0.90;;;;;;;;;;4953395;28;20457;-56
2022/09/27 09:33:46;;;;;;;1.30;0.83;;;;;;;;;;4980815;28;20488;-57
2022/09/27 09:36:15;;;;;;;2.10;1.00;;;;;;;;;;4949983;28;20477;-57
2022/09/27 09:38:44;;;;;;;2.00;1.40;;;;;;;;;;4985002;28;20432;-56
2022/09/27 09:41:36;;;;;;;2.17;1.90;;;;;;;;;;4970944;28;20441;-56
2022/09/27 09:44:07;;;;;;;1.67;1.50;;;;;;;;;;4991466;28;20459;-56
2022/09/27 09:46:35;;;;;;;1.60;1.17;;;;;;;;;;4973771;28;20469;-55
2022/09/27 09:49:06;;;;;;;2.80;1.00;;;;;;;;;;4979996;28;20473;-56
2022/09/27 09:51:34;;;;;;;2.53;1.10;;;;;;;;;;4936942;28;20472;-56
2022/09/27 09:54:20;;;;;;;1.47;1.00;;;;;;;;;;4987430;28;20436;-57
2022/09/27 09:56:47;;;;;;;1.70;1.23;;;;;;;;;;4968771;28;20894;-56
2022/09/27 09:59:20;;;;;;;1.70;1.10;;;;;;;;;;4980453;28;20539;-56
2022/09/27 10:01:47;;;;;;;2.23;0.70;;;;;;;;;;4980189;28;20445;-56
2022/09/27 10:04:19;;;;;;;2.77;0.73;;;;;;;;;;4983863;28;20437;-57
2022/09/27 10:06:45;;;;;;;2.20;1.10;;;;;;;;;;4980505;28;20469;-56
2022/09/27 10:09:12;;;;;;;1.60;1.00;;;;;;;;;;4981074;28;20441;-57
2022/09/27 10:11:45;;;;;;;1.40;0.93;;;;;;;;;;4953324;28;20460;-56
2022/09/27 10:14:11;;;;;;;3.10;1.67;;;;;;;;;;4977701;28;20438;-57
2022/09/27 10:16:37;;;;;;;9.53;6.70;;;;;;;;;;4969845;28;20485;-57
2022/09/27 10:19:03;;;;;;;1.70;1.23;;;;;;;;;;4979784;28;20445;-57
2022/09/27 10:21:30;;;;;;;3.70;1.40;;;;;;;;;;4944136;28;20456;-57
2022/09/27 10:24:12;;;;;;;2.80;1.53;;;;;;;;;;4977085;28;20923;-56
2022/09/27 10:26:39;;;;;;;1.60;1.10;;;;;;;;;;4976336;28;20468;-56
2022/09/27 10:29:15;;;;;;;3.93;1.83;;;;;;;;;;4981926;28;20931;-55
2022/09/27 10:31:44;;;;;;;5.83;1.80;;;;;;;;;;4959140;28;20452;-55
2022/09/27 10:34:16;;;;;;;3.80;2.20;;;;;;;;;;4982683;28;20432;-57
2022/09/27 10:36:42;;;;;;;4.07;2.80;;;;;;;;;;4973677;28;20480;-57
2022/09/27 10:39:09;;;;;;;3.50;2.10;;;;;;;;;;4981805;28;20789;-57
2022/09/27 10:41:41;;;;;;;17.10;9.27;;;;;;;;;;4939089;28;20201;-58
2022/09/27 10:44:16;;;;;;;3.33;1.40;;;;;;;;;;4977346;28;20433;-58
2022/09/27 10:46:43;;;;;;;1.57;0.90;;;;;;;;;;4980003;28;20435;-57
2022/09/27 10:49:18;;;;;;;2.73;1.03;;;;;;;;;;4982129;28;20422;-57
2022/09/27 10:51:44;;;;;;;1.90;1.63;;;;;;;;;;4959258;28;20452;-55
2022/09/27 10:54:18;;;;;;;2.57;1.03;;;;;;;;;;4988499;28;20459;-57
2022/09/27 10:56:44;;;;;;;6.37;4.90;;;;;;;;;;4942566;28;20478;-57
2022/09/27 10:59:13;;;;;;;2.67;2.13;;;;;;;;;;4981037;28;20534;-57
2022/09/27 11:01:40;;;;;;;1.77;1.10;;;;;;;;;;4968755;28;20755;-57
2022/09/27 11:04:07;;;;;;;2.33;1.93;;;;;;;;;;4987818;28;20424;-57
2022/09/27 11:06:37;;;;;;;4.70;2.40;;;;;;;;;;4983999;28;20442;-57
2022/09/27 11:09:10;;;;;;;2.87;1.50;;;;;;;;;;4991521;28;20433;-57
2022/09/27 11:11:36;;;;;;;4.40;1.60;;;;;;;;;;4952401;28;20456;-56
2022/09/27 11:14:03;;;;;;;2.70;1.80;;;;;;;;;;4987592;28;20430;-55
2022/09/27 11:16:48;;;;;;;8.50;4.53;;;;;;;;;;4979401;28;20288;-57
2022/09/27 11:19:14;;;;;;;2.23;1.50;;;;;;;;;;4980865;28;20676;-56
2022/09/27 11:22:00;;;;;;;2.17;1.00;;;;;;;;;;4962715;28;20437;-56
2022/09/27 11:24:35;;;;;;;4.00;1.20;;;;;;;;;;4983346;28;20500;-57
2022/09/27 11:27:20;;;;;;;3.73;0.93;;;;;;;;;;4975385;28;21035;-57
2022/09/27 11:30:12;;;;;;;2.90;1.37;;;;;;;;;;4981445;28;20449;-57
2022/09/27 11:32:57;;;;;;;3.57;1.20;;;;;;;;;;4944515;28;20529;-57
2022/09/27 11:35:41;;;;;;;3.10;2.73;;;;;;;;;;4978969;28;20594;-56
2022/09/27 11:38:45;;;;;;;1.97;1.23;;;;;;;;;;4962782;28;21008;-57
2022/09/27 11:41:17;;;;;;;2.27;1.40;;;;;;;;;;4977751;28;20503;-57
2022/09/27 11:44:02;;;;;;;3.93;1.37;;;;;;;;;;4984260;28;20452;-57
2022/09/27 11:46:29;;;;;;;3.77;0.80;;;;;;;;;;4978077;28;20503;-56
2022/09/27 11:49:03;;;;;;;1.83;0.80;;;;;;;;;;4969133;28;20452;-57
2022/09/27 11:51:53;;;;;;;2.00;1.13;;;;;;;;;;4975607;28;20436;-56
2022/09/27 11:54:28;;;;;;;5.80;1.03;;;;;;;;;;4972278;28;20528;-56
2022/09/27 11:57:06;;;;;;;1.57;0.80;;;;;;;;;;4980390;28;20472;-57
2022/09/27 11:59:41;;;;;;;2.23;0.80;;;;;;;;;;4976778;28;20966;-56
2022/09/27 12:02:10;;;;;;;5.20;1.77;;;;;;;;;;4950755;28;20513;-57
2022/09/27 12:04:42;;;;;;;1.77;0.90;;;;;;;;;;4982923;28;20446;-57
2022/09/27 12:07:11;;;;;;;1.00;0.50;;;;;;;;;;4977393;28;20433;-62
2022/09/27 12:09:39;;;;;;;1.20;0.50;;;;;;;;;;4977354;28;20438;-62
2022/09/27 12:12:05;;;;;;;1.20;1.00;;;;;;;;;;4959950;28;20448;-62
2022/09/27 12:14:41;;;;;;;1.20;0.70;;;;;;;;;;4977494;28;20438;-61
2022/09/27 12:17:12;;;;;;;1.10;0.60;;;;;;;;;;4982008;28;21160;-62
2022/09/27 12:19:39;;;;;;;1.10;0.67;;;;;;;;;;4987425;28;20950;-64
2022/09/27 12:22:06;;;;;;;1.00;0.60;;;;;;;;;;4963039;28;20464;-69
2022/09/27 12:24:32;;;;;;;1.00;0.60;;;;;;;;;;4977145;28;20452;-70
2022/09/27 12:27:02;;;;;;;0.93;0.50;;;;;;;;;;4979065;28;20453;-67
2022/09/27 12:29:32;;;;;;;2.03;0.80;;;;;;;;;;4978179;28;20438;-64
2022/09/27 12:32:17;;;;;;;1.00;0.60;;;;;;;;;;4967559;28;20512;-66
2022/09/27 12:34:55;;;;;;;1.10;0.70;;;;;;;;;;4980146;28;20535;-64
2022/09/27 12:37:24;;;;;;;1.10;0.70;;;;;;;;;;4953173;28;21368;-64
2022/09/27 12:39:54;;;;;;;1.87;0.77;;;;;;;;;;4984547;28;20437;-61
2022/09/27 12:42:29;;;;;;;1.10;0.70;;;;;;;;;;4953063;28;21098;-61
2022/09/27 12:44:55;;;;;;;1.40;0.83;;;;;;;;;;4974436;28;20476;-60
2022/09/27 12:47:24;;;;;;;1.47;0.87;;;;;;;;;;4974930;28;20438;-59
2022/09/27 12:50:16;;;;;;;1.50;0.80;;;;;;;;;;4976614;28;20241;-60
2022/09/27 12:52:43;;;;;;;3.13;1.10;;;;;;;;;;4964518;28;20434;-60
2022/09/27 12:55:09;;;;;;;5.10;2.60;;;;;;;;;;4996640;28;20512;-61
2022/09/27 12:57:51;;;;;;;1.20;0.80;;;;;;;;;;4971279;28;20520;-63
2022/09/27 13:00:20;;;;;;;3.07;0.87;;;;;;;;;;4975881;28;20962;-61
2022/09/27 13:03:06;;;;;;;1.10;0.60;;;;;;;;;;4972644;28;20958;-63
2022/09/27 13:05:44;;;;;;;1.47;0.90;;;;;;;;;;4979907;28;20520;-62
2022/09/27 13:08:29;;;;;;;1.30;0.87;;;;;;;;;;4972144;28;20448;-61
2022/09/27 13:10:59;;;;;;;1.60;0.80;;;;;;;;;;4981372;28;20495;-60
2022/09/27 13:13:25;;;;;;;1.87;0.83;;;;;;;;;;4935727;28;20476;-60
2022/09/27 13:15:51;;;;;;;1.17;0.70;;;;;;;;;;4956337;28;20568;-59
2022/09/27 13:18:36;;;;;;;1.30;0.83;;;;;;;;;;4972864;28;20457;-60
2022/09/27 13:21:06;;;;;;;1.40;0.80;;;;;;;;;;4975230;28;20440;-60
2022/09/27 13:23:32;;;;;;;1.27;0.73;;;;;;;;;;4953821;28;20457;-59
2022/09/27 13:25:59;;;;;;;4.83;0.93;;;;;;;;;;4978020;28;20444;-62
2022/09/27 13:28:31;;;;;;;1.77;1.03;;;;;;;;;;4968524;28;20452;-63
2022/09/27 13:30:58;;;;;;;1.33;0.83;;;;;;;;;;4986950;28;20491;-63
2022/09/27 13:33:31;;;;;;;3.07;1.00;;;;;;;;;;4955773;28;20449;-62
2022/09/27 13:36:21;;;;;;;1.63;1.20;;;;;;;;;;4980900;28;20433;-60
2022/09/27 13:38:54;;;;;;;1.30;0.80;;;;;;;;;;4984246;28;20486;-62
2022/09/27 13:41:20;;;;;;;1.00;0.60;;;;;;;;;;4984022;28;20420;-61
2022/09/27 13:43:49;;;;;;;1.30;0.83;;;;;;;;;;4948430;28;23654;-61
2022/09/27 13:46:16;;;;;;;1.83;0.90;;;;;;;;;;4974643;28;20425;-60
2022/09/27 13:48:46;;;;;;;7.90;1.00;;;;;;;;;;4955990;28;23912;-60
2022/09/27 13:51:12;;;;;;;1.60;0.97;;;;;;;;;;4992853;28;20437;-61
2022/09/27 13:53:39;;;;;;;1.40;0.80;;;;;;;;;;4953656;28;21168;-60
2022/09/27 13:56:05;;;;;;;1.60;0.87;;;;;;;;;;4955437;28;20193;-60
2022/09/27 13:58:40;;;;;;;1.20;0.80;;;;;;;;;;4986883;28;20421;-61
2022/09/27 14:01:12;;;;;;;1.20;0.80;;;;;;;;;;4986701;28;20492;-65
2022/09/27 14:03:38;;;;;;;6.20;1.20;;;;;;;;;;4980756;28;20441;-66
2022/09/27 14:06:04;;;;;;;1.73;0.77;;;;;;;;;;4958199;28;20444;-66
2022/09/27 14:08:34;;;;;;;1.60;1.20;;;;;;;;;;4953117;28;20442;-63
2022/09/27 14:11:04;;;;;;;4.33;1.10;;;;;;;;;;4979840;28;20445;-61
2022/09/27 14:13:33;;;;;;;1.40;0.83;;;;;;;;;;4977704;28;20527;-59
2022/09/27 14:16:01;;;;;;;2.70;1.17;;;;;;;;;;4983299;28;20521;-61
2022/09/27 14:18:28;;;;;;;1.20;0.83;;;;;;;;;;4936571;28;21024;-58
2022/09/27 14:21:11;;;;;;;1.50;1.00;;;;;;;;;;4951395;28;21383;-61
2022/09/27 14:23:37;;;;;;;2.20;1.10;;;;;;;;;;4949325;28;20440;-60
2022/09/27 14:26:03;;;;;;;1.40;1.00;;;;;;;;;;4972929;28;20444;-60
2022/09/27 14:28:29;;;;;;;4.93;0.90;;;;;;;;;;4954424;28;20463;-58
2022/09/27 14:31:05;;;;;;;1.27;0.70;;;;;;;;;;4975088;28;20434;-59
2022/09/27 14:33:33;;;;;;;4.10;1.43;;;;;;;;;;4954832;28;20488;-61
2022/09/27 14:38:44;;;;;;;4.77;4.27;;;;;;;;;;4952089;28;20511;-63
2022/09/27 14:41:10;;;;;;;2.17;1.17;;;;;;;;;;4981885;28;20433;-63
2022/09/27 14:43:36;;;;;;;2.00;1.60;;;;;;;;;;4962594;28;20675;-63
2022/09/27 14:46:06;;;;;;;3.93;1.67;;;;;;;;;;4981068;28;20440;-63
2022/09/27 14:48:32;;;;;;;3.47;1.60;;;;;;;;;;4981360;28;20967;-65
2022/09/27 14:51:02;;;;;;;1.80;1.30;;;;;;;;;;4980137;28;20463;-65
2022/09/27 14:54:04;;;;;;;2.30;1.73;;;;;;;;;;4934764;28;20491;-63
2022/09/27 14:56:31;;;;;;;1.20;1.00;;;;;;;;;;4995047;28;20473;-62
2022/09/27 14:59:25;;;;;;;1.53;1.07;;;;;;;;;;4956021;28;21057;-63
2022/09/27 15:01:51;;;;;;;1.10;0.77;;;;;;;;;;4980336;28;20503;-66
2022/09/27 15:04:18;;;;;;;1.10;0.90;;;;;;;;;;4954371;28;20440;-64
2022/09/27 15:06:44;;;;;;;1.97;1.13;;;;;;;;;;4959151;28;20433;-65